sensor_id;sensor_type;location;lat;lon;timestamp;P1;durP1;ratioP1;P2;durP2;ratioP2
18732;SDS011;9495;51.210;2.934;2023-08-01T00:02:22;29.65;;;8.63;;
18732;SDS011;9495;51.210;2.934;2023-08-01T00:04:51;25.17;;;8.23;;
18732;SDS011;9495;51.210;2.934;2023-08-01T00:07:19;22.25;;;8.90;;
18732;SDS011;9495;51.210;2.934;2023-08-01T00:09:49;15.32;;;6.10;;
18732;SDS011;9495;51.210;2.934;2023-08-01T00:12:17;23.48;;;7.25;;
18732;SDS011;9495;51.210;2.934;2023-08-01T00:14:46;26.85;;;7.13;;
18732;SDS011;9495;51.210;2.934;2023-08-01T00:17:15;22.88;;;7.45;;
18732;SDS011;9495;51.210;2.934;2023-08-01T00:19:43;26.05;;;7.47;;
18732;SDS011;9495;51.210;2.934;2023-08-01T00:22:12;20.48;;;6.70;;
18732;SDS011;9495;51.210;2.934;2023-08-01T00:24:40;18.92;;;6.15;;
18732;SDS011;9495;51.210;2.934;2023-08-01T00:27:10;23.23;;;7.18;;
18732;SDS011;9495;51.210;2.934;2023-08-01T00:29:38;25.98;;;7.22;;
18732;SDS011;9495;51.210;2.934;2023-08-01T00:32:07;23.15;;;7.18;;
18732;SDS011;9495;51.210;2.934;2023-08-01T00:34:36;20.08;;;5.60;;
18732;SDS011;9495;51.210;2.934;2023-08-01T00:37:05;19.60;;;5.90;;
18732;SDS011;9495;51.210;2.934;2023-08-01T00:39:33;18.83;;;6.15;;
18732;SDS011;9495;51.210;2.934;2023-08-01T00:42:02;21.15;;;6.15;;
18732;SDS011;9495;51.210;2.934;2023-08-01T00:44:32;21.60;;;7.35;;
18732;SDS011;9495;51.210;2.934;2023-08-01T00:47:00;20.58;;;6.68;;
18732;SDS011;9495;51.210;2.934;2023-08-01T00:49:29;14.02;;;5.68;;
18732;SDS011;9495;51.210;2.934;2023-08-01T00:52:00;17.00;;;5.95;;
18732;SDS011;9495;51.210;2.934;2023-08-01T00:54:31;16.02;;;5.80;;
18732;SDS011;9495;51.210;2.934;2023-08-01T00:57:02;16.75;;;5.70;;
18732;SDS011;9495;51.210;2.934;2023-08-01T00:59:32;18.15;;;5.60;;
18732;SDS011;9495;51.210;2.934;2023-08-01T01:02:01;22.15;;;5.90;;
18732;SDS011;9495;51.210;2.934;2023-08-01T01:04:31;15.48;;;5.43;;
18732;SDS011;9495;51.210;2.934;2023-08-01T01:07:00;17.10;;;5.68;;
18732;SDS011;9495;51.210;2.934;2023-08-01T01:09:31;19.98;;;5.57;;
18732;SDS011;9495;51.210;2.934;2023-08-01T01:12:00;17.73;;;5.45;;
18732;SDS011;9495;51.210;2.934;2023-08-01T01:14:28;19.40;;;5.78;;
18732;SDS011;9495;51.210;2.934;2023-08-01T01:16:58;17.33;;;5.63;;
18732;SDS011;9495;51.210;2.934;2023-08-01T01:19:27;16.73;;;4.97;;
18732;SDS011;9495;51.210;2.934;2023-08-01T01:21:56;14.65;;;4.95;;
18732;SDS011;9495;51.210;2.934;2023-08-01T01:24:26;14.25;;;4.55;;
18732;SDS011;9495;51.210;2.934;2023-08-01T01:26:55;14.48;;;4.90;;
18732;SDS011;9495;51.210;2.934;2023-08-01T01:29:26;15.57;;;5.53;;
18732;SDS011;9495;51.210;2.934;2023-08-01T01:31:56;12.18;;;4.97;;
18732;SDS011;9495;51.210;2.934;2023-08-01T01:34:26;15.20;;;5.03;;
18732;SDS011;9495;51.210;2.934;2023-08-01T01:36:57;15.25;;;4.80;;
18732;SDS011;9495;51.210;2.934;2023-08-01T01:39:26;12.95;;;5.05;;
18732;SDS011;9495;51.210;2.934;2023-08-01T01:41:54;14.68;;;4.40;;
18732;SDS011;9495;51.210;2.934;2023-08-01T01:44:23;13.10;;;4.43;;
18732;SDS011;9495;51.210;2.934;2023-08-01T01:46:51;13.43;;;4.97;;
18732;SDS011;9495;51.210;2.934;2023-08-01T01:49:20;12.25;;;4.85;;
18732;SDS011;9495;51.210;2.934;2023-08-01T01:51:48;13.77;;;4.80;;
18732;SDS011;9495;51.210;2.934;2023-08-01T01:54:18;11.93;;;5.35;;
18732;SDS011;9495;51.210;2.934;2023-08-01T01:56:46;16.85;;;5.50;;
18732;SDS011;9495;51.210;2.934;2023-08-01T01:59:15;15.20;;;5.43;;
18732;SDS011;9495;51.210;2.934;2023-08-01T02:01:43;10.68;;;4.97;;
18732;SDS011;9495;51.210;2.934;2023-08-01T02:04:12;12.57;;;5.90;;
18732;SDS011;9495;51.210;2.934;2023-08-01T02:06:41;16.27;;;6.05;;
18732;SDS011;9495;51.210;2.934;2023-08-01T02:09:09;13.63;;;5.25;;
18732;SDS011;9495;51.210;2.934;2023-08-01T02:11:39;11.82;;;6.28;;
18732;SDS011;9495;51.210;2.934;2023-08-01T02:14:07;15.80;;;5.75;;
18732;SDS011;9495;51.210;2.934;2023-08-01T02:16:36;19.63;;;5.75;;
18732;SDS011;9495;51.210;2.934;2023-08-01T02:19:05;16.08;;;5.60;;
18732;SDS011;9495;51.210;2.934;2023-08-01T02:21:34;17.17;;;5.43;;
18732;SDS011;9495;51.210;2.934;2023-08-01T02:24:02;12.90;;;5.75;;
18732;SDS011;9495;51.210;2.934;2023-08-01T02:26:31;14.48;;;5.90;;
18732;SDS011;9495;51.210;2.934;2023-08-01T02:29:01;12.82;;;5.68;;
18732;SDS011;9495;51.210;2.934;2023-08-01T02:31:29;18.92;;;6.25;;
18732;SDS011;9495;51.210;2.934;2023-08-01T02:33:58;21.45;;;6.70;;
18732;SDS011;9495;51.210;2.934;2023-08-01T02:36:26;13.07;;;5.13;;
18732;SDS011;9495;51.210;2.934;2023-08-01T02:38:55;13.35;;;5.53;;
18732;SDS011;9495;51.210;2.934;2023-08-01T02:41:23;14.07;;;5.40;;
18732;SDS011;9495;51.210;2.934;2023-08-01T02:43:52;22.25;;;6.75;;
18732;SDS011;9495;51.210;2.934;2023-08-01T02:46:22;13.45;;;6.63;;
18732;SDS011;9495;51.210;2.934;2023-08-01T02:48:50;13.77;;;5.55;;
18732;SDS011;9495;51.210;2.934;2023-08-01T02:51:19;23.48;;;6.20;;
18732;SDS011;9495;51.210;2.934;2023-08-01T02:53:47;17.83;;;5.75;;
18732;SDS011;9495;51.210;2.934;2023-08-01T02:56:16;17.75;;;5.78;;
18732;SDS011;9495;51.210;2.934;2023-08-01T02:58:45;15.07;;;6.50;;
18732;SDS011;9495;51.210;2.934;2023-08-01T03:01:13;17.67;;;6.50;;
18732;SDS011;9495;51.210;2.934;2023-08-01T03:03:44;17.20;;;6.78;;
18732;SDS011;9495;51.210;2.934;2023-08-01T03:06:12;18.17;;;6.75;;
18732;SDS011;9495;51.210;2.934;2023-08-01T03:08:42;21.02;;;6.95;;
18732;SDS011;9495;51.210;2.934;2023-08-01T03:11:11;17.80;;;5.90;;
18732;SDS011;9495;51.210;2.934;2023-08-01T03:13:39;17.27;;;6.43;;
18732;SDS011;9495;51.210;2.934;2023-08-01T03:16:08;16.02;;;6.10;;
18732;SDS011;9495;51.210;2.934;2023-08-01T03:18:37;18.77;;;6.28;;
18732;SDS011;9495;51.210;2.934;2023-08-01T03:21:06;21.13;;;6.78;;
18732;SDS011;9495;51.210;2.934;2023-08-01T03:23:35;18.42;;;6.07;;
18732;SDS011;9495;51.210;2.934;2023-08-01T03:26:04;13.32;;;6.00;;
18732;SDS011;9495;51.210;2.934;2023-08-01T03:28:32;13.50;;;5.65;;
18732;SDS011;9495;51.210;2.934;2023-08-01T03:31:01;18.95;;;6.53;;
18732;SDS011;9495;51.210;2.934;2023-08-01T03:33:30;20.60;;;6.90;;
18732;SDS011;9495;51.210;2.934;2023-08-01T03:36:00;15.85;;;5.88;;
18732;SDS011;9495;51.210;2.934;2023-08-01T03:38:31;14.98;;;6.25;;
18732;SDS011;9495;51.210;2.934;2023-08-01T03:41:00;17.10;;;6.05;;
18732;SDS011;9495;51.210;2.934;2023-08-01T03:43:30;19.67;;;5.90;;
18732;SDS011;9495;51.210;2.934;2023-08-01T03:45:59;12.00;;;6.35;;
18732;SDS011;9495;51.210;2.934;2023-08-01T03:48:27;14.10;;;5.63;;
18732;SDS011;9495;51.210;2.934;2023-08-01T03:50:55;16.08;;;6.00;;
18732;SDS011;9495;51.210;2.934;2023-08-01T03:53:24;11.18;;;5.35;;
18732;SDS011;9495;51.210;2.934;2023-08-01T03:55:54;20.20;;;6.57;;
18732;SDS011;9495;51.210;2.934;2023-08-01T03:58:22;14.43;;;5.63;;
18732;SDS011;9495;51.210;2.934;2023-08-01T04:00:51;18.42;;;6.18;;
18732;SDS011;9495;51.210;2.934;2023-08-01T04:03:20;19.00;;;6.28;;
18732;SDS011;9495;51.210;2.934;2023-08-01T04:05:49;15.07;;;4.93;;
18732;SDS011;9495;51.210;2.934;2023-08-01T04:08:17;16.35;;;6.50;;
18732;SDS011;9495;51.210;2.934;2023-08-01T04:10:46;12.63;;;5.25;;
18732;SDS011;9495;51.210;2.934;2023-08-01T04:13:15;16.38;;;5.97;;
18732;SDS011;9495;51.210;2.934;2023-08-01T04:15:44;16.40;;;5.82;;
18732;SDS011;9495;51.210;2.934;2023-08-01T04:18:13;13.13;;;5.55;;
18732;SDS011;9495;51.210;2.934;2023-08-01T04:20:41;14.25;;;6.65;;
18732;SDS011;9495;51.210;2.934;2023-08-01T04:23:10;14.05;;;5.20;;
18732;SDS011;9495;51.210;2.934;2023-08-01T04:25:40;14.50;;;5.38;;
18732;SDS011;9495;51.210;2.934;2023-08-01T04:28:08;16.40;;;5.95;;
18732;SDS011;9495;51.210;2.934;2023-08-01T04:30:38;18.63;;;5.93;;
18732;SDS011;9495;51.210;2.934;2023-08-01T04:33:07;22.58;;;6.13;;
18732;SDS011;9495;51.210;2.934;2023-08-01T04:35:35;19.70;;;5.68;;
18732;SDS011;9495;51.210;2.934;2023-08-01T04:38:03;15.68;;;5.60;;
18732;SDS011;9495;51.210;2.934;2023-08-01T04:40:32;15.98;;;5.90;;
18732;SDS011;9495;51.210;2.934;2023-08-01T04:43:01;15.88;;;5.82;;
18732;SDS011;9495;51.210;2.934;2023-08-01T04:45:29;18.27;;;5.88;;
18732;SDS011;9495;51.210;2.934;2023-08-01T04:47:59;22.70;;;6.07;;
18732;SDS011;9495;51.210;2.934;2023-08-01T04:50:28;23.10;;;5.60;;
18732;SDS011;9495;51.210;2.934;2023-08-01T04:52:56;13.18;;;4.90;;
18732;SDS011;9495;51.210;2.934;2023-08-01T04:55:25;14.43;;;5.20;;
18732;SDS011;9495;51.210;2.934;2023-08-01T04:57:53;17.02;;;5.32;;
18732;SDS011;9495;51.210;2.934;2023-08-01T05:00:22;15.98;;;5.50;;
18732;SDS011;9495;51.210;2.934;2023-08-01T05:02:50;12.23;;;5.15;;
18732;SDS011;9495;51.210;2.934;2023-08-01T05:05:20;16.92;;;5.38;;
18732;SDS011;9495;51.210;2.934;2023-08-01T05:07:49;14.48;;;4.85;;
18732;SDS011;9495;51.210;2.934;2023-08-01T05:10:17;14.90;;;4.78;;
18732;SDS011;9495;51.210;2.934;2023-08-01T05:12:46;12.98;;;4.75;;
18732;SDS011;9495;51.210;2.934;2023-08-01T05:15:14;13.10;;;4.97;;
18732;SDS011;9495;51.210;2.934;2023-08-01T05:17:43;16.90;;;5.15;;
18732;SDS011;9495;51.210;2.934;2023-08-01T05:20:11;18.45;;;4.63;;
18732;SDS011;9495;51.210;2.934;2023-08-01T05:22:42;16.92;;;5.35;;
18732;SDS011;9495;51.210;2.934;2023-08-01T05:25:10;14.15;;;5.00;;
18732;SDS011;9495;51.210;2.934;2023-08-01T05:27:39;9.77;;;4.38;;
18732;SDS011;9495;51.210;2.934;2023-08-01T05:30:08;14.90;;;5.63;;
18732;SDS011;9495;51.210;2.934;2023-08-01T05:32:37;12.43;;;5.00;;
18732;SDS011;9495;51.210;2.934;2023-08-01T05:35:07;17.17;;;5.03;;
18732;SDS011;9495;51.210;2.934;2023-08-01T05:37:36;13.20;;;5.35;;
18732;SDS011;9495;51.210;2.934;2023-08-01T05:40:06;15.48;;;5.18;;
18732;SDS011;9495;51.210;2.934;2023-08-01T05:42:35;11.95;;;4.28;;
18732;SDS011;9495;51.210;2.934;2023-08-01T05:45:04;18.13;;;4.90;;
18732;SDS011;9495;51.210;2.934;2023-08-01T05:47:33;20.30;;;5.50;;
18732;SDS011;9495;51.210;2.934;2023-08-01T05:50:02;13.95;;;4.60;;
18732;SDS011;9495;51.210;2.934;2023-08-01T05:52:31;18.23;;;5.35;;
18732;SDS011;9495;51.210;2.934;2023-08-01T05:54:59;17.10;;;5.22;;
18732;SDS011;9495;51.210;2.934;2023-08-01T05:57:29;15.52;;;6.05;;
18732;SDS011;9495;51.210;2.934;2023-08-01T05:59:58;17.92;;;5.40;;
18732;SDS011;9495;51.210;2.934;2023-08-01T06:02:26;14.82;;;4.97;;
18732;SDS011;9495;51.210;2.934;2023-08-01T06:04:55;17.40;;;5.28;;
18732;SDS011;9495;51.210;2.934;2023-08-01T06:07:23;14.38;;;5.65;;
18732;SDS011;9495;51.210;2.934;2023-08-01T06:09:52;15.38;;;4.72;;
18732;SDS011;9495;51.210;2.934;2023-08-01T06:12:20;14.00;;;4.80;;
18732;SDS011;9495;51.210;2.934;2023-08-01T06:14:50;14.63;;;4.53;;
18732;SDS011;9495;51.210;2.934;2023-08-01T06:17:19;13.52;;;5.10;;
18732;SDS011;9495;51.210;2.934;2023-08-01T06:19:48;17.70;;;5.00;;
18732;SDS011;9495;51.210;2.934;2023-08-01T06:22:17;19.88;;;5.05;;
18732;SDS011;9495;51.210;2.934;2023-08-01T06:24:46;18.50;;;5.28;;
18732;SDS011;9495;51.210;2.934;2023-08-01T06:27:14;17.70;;;5.28;;
18732;SDS011;9495;51.210;2.934;2023-08-01T06:29:44;15.35;;;4.80;;
18732;SDS011;9495;51.210;2.934;2023-08-01T06:32:14;17.30;;;4.90;;
18732;SDS011;9495;51.210;2.934;2023-08-01T06:34:42;16.30;;;4.78;;
18732;SDS011;9495;51.210;2.934;2023-08-01T06:37:11;15.23;;;5.00;;
18732;SDS011;9495;51.210;2.934;2023-08-01T06:39:39;16.02;;;5.45;;
18732;SDS011;9495;51.210;2.934;2023-08-01T06:42:08;19.40;;;4.97;;
18732;SDS011;9495;51.210;2.934;2023-08-01T06:44:37;18.00;;;4.72;;
18732;SDS011;9495;51.210;2.934;2023-08-01T06:47:05;12.80;;;4.85;;
18732;SDS011;9495;51.210;2.934;2023-08-01T06:49:35;16.58;;;5.10;;
18732;SDS011;9495;51.210;2.934;2023-08-01T06:52:03;12.52;;;4.07;;
18732;SDS011;9495;51.210;2.934;2023-08-01T06:54:32;16.38;;;4.55;;
18732;SDS011;9495;51.210;2.934;2023-08-01T06:57:04;14.60;;;4.35;;
18732;SDS011;9495;51.210;2.934;2023-08-01T06:59:33;10.75;;;3.60;;
18732;SDS011;9495;51.210;2.934;2023-08-01T07:02:02;13.60;;;4.07;;
18732;SDS011;9495;51.210;2.934;2023-08-01T07:04:30;12.73;;;4.38;;
18732;SDS011;9495;51.210;2.934;2023-08-01T07:07:00;14.93;;;4.05;;
18732;SDS011;9495;51.210;2.934;2023-08-01T07:09:30;14.25;;;4.57;;
18732;SDS011;9495;51.210;2.934;2023-08-01T07:11:58;14.25;;;4.20;;
18732;SDS011;9495;51.210;2.934;2023-08-01T07:14:27;16.40;;;4.88;;
18732;SDS011;9495;51.210;2.934;2023-08-01T07:16:56;16.27;;;4.90;;
18732;SDS011;9495;51.210;2.934;2023-08-01T07:19:24;18.60;;;4.78;;
18732;SDS011;9495;51.210;2.934;2023-08-01T07:21:53;14.45;;;4.80;;
18732;SDS011;9495;51.210;2.934;2023-08-01T07:24:26;14.93;;;5.22;;
18732;SDS011;9495;51.210;2.934;2023-08-01T07:26:55;11.23;;;4.00;;
18732;SDS011;9495;51.210;2.934;2023-08-01T07:29:23;13.63;;;3.97;;
18732;SDS011;9495;51.210;2.934;2023-08-01T07:31:52;10.18;;;3.75;;
18732;SDS011;9495;51.210;2.934;2023-08-01T07:34:20;11.93;;;4.10;;
18732;SDS011;9495;51.210;2.934;2023-08-01T07:36:49;8.73;;;4.07;;
18732;SDS011;9495;51.210;2.934;2023-08-01T07:39:18;14.82;;;4.40;;
18732;SDS011;9495;51.210;2.934;2023-08-01T07:41:48;14.52;;;3.55;;
18732;SDS011;9495;51.210;2.934;2023-08-01T07:44:16;14.98;;;4.13;;
18732;SDS011;9495;51.210;2.934;2023-08-01T07:46:45;12.00;;;4.07;;
18732;SDS011;9495;51.210;2.934;2023-08-01T07:49:13;11.73;;;3.60;;
18732;SDS011;9495;51.210;2.934;2023-08-01T07:51:42;9.65;;;3.40;;
18732;SDS011;9495;51.210;2.934;2023-08-01T07:54:11;12.70;;;4.10;;
18732;SDS011;9495;51.210;2.934;2023-08-01T07:56:39;10.90;;;3.85;;
18732;SDS011;9495;51.210;2.934;2023-08-01T07:59:11;12.23;;;3.85;;
18732;SDS011;9495;51.210;2.934;2023-08-01T08:01:39;24.58;;;5.93;;
18732;SDS011;9495;51.210;2.934;2023-08-01T08:04:08;14.95;;;4.30;;
18732;SDS011;9495;51.210;2.934;2023-08-01T08:06:37;13.63;;;3.92;;
18732;SDS011;9495;51.210;2.934;2023-08-01T08:09:06;15.00;;;4.95;;
18732;SDS011;9495;51.210;2.934;2023-08-01T08:11:35;16.52;;;4.40;;
18732;SDS011;9495;51.210;2.934;2023-08-01T08:14:03;11.77;;;4.15;;
18732;SDS011;9495;51.210;2.934;2023-08-01T08:16:33;13.35;;;4.20;;
18732;SDS011;9495;51.210;2.934;2023-08-01T08:19:02;13.70;;;3.60;;
18732;SDS011;9495;51.210;2.934;2023-08-01T08:21:30;9.85;;;3.35;;
18732;SDS011;9495;51.210;2.934;2023-08-01T08:23:59;12.10;;;3.50;;
18732;SDS011;9495;51.210;2.934;2023-08-01T08:26:27;19.70;;;4.22;;
18732;SDS011;9495;51.210;2.934;2023-08-01T08:28:57;11.52;;;4.03;;
18732;SDS011;9495;51.210;2.934;2023-08-01T08:31:26;12.93;;;4.13;;
18732;SDS011;9495;51.210;2.934;2023-08-01T08:33:56;12.93;;;3.45;;
18732;SDS011;9495;51.210;2.934;2023-08-01T08:36:24;16.23;;;3.60;;
18732;SDS011;9495;51.210;2.934;2023-08-01T08:38:53;11.73;;;3.30;;
18732;SDS011;9495;51.210;2.934;2023-08-01T08:41:23;13.35;;;3.88;;
18732;SDS011;9495;51.210;2.934;2023-08-01T08:43:55;10.15;;;3.20;;
18732;SDS011;9495;51.210;2.934;2023-08-01T08:46:26;12.18;;;3.58;;
18732;SDS011;9495;51.210;2.934;2023-08-01T08:48:58;11.70;;;3.28;;
18732;SDS011;9495;51.210;2.934;2023-08-01T08:51:28;10.88;;;3.70;;
18732;SDS011;9495;51.210;2.934;2023-08-01T08:53:58;12.52;;;3.45;;
18732;SDS011;9495;51.210;2.934;2023-08-01T08:56:29;13.80;;;3.15;;
18732;SDS011;9495;51.210;2.934;2023-08-01T08:58:57;8.13;;;3.08;;
18732;SDS011;9495;51.210;2.934;2023-08-01T09:01:27;15.80;;;3.78;;
18732;SDS011;9495;51.210;2.934;2023-08-01T09:03:59;14.48;;;4.00;;
18732;SDS011;9495;51.210;2.934;2023-08-01T09:06:28;10.50;;;3.00;;
18732;SDS011;9495;51.210;2.934;2023-08-01T09:09:01;12.98;;;3.33;;
18732;SDS011;9495;51.210;2.934;2023-08-01T09:11:37;12.98;;;3.33;;
18732;SDS011;9495;51.210;2.934;2023-08-01T09:14:08;17.08;;;2.97;;
18732;SDS011;9495;51.210;2.934;2023-08-01T09:16:37;14.40;;;3.45;;
18732;SDS011;9495;51.210;2.934;2023-08-01T09:19:08;10.70;;;3.20;;
18732;SDS011;9495;51.210;2.934;2023-08-01T09:21:39;11.85;;;3.83;;
18732;SDS011;9495;51.210;2.934;2023-08-01T09:24:08;12.25;;;3.60;;
18732;SDS011;9495;51.210;2.934;2023-08-01T09:26:37;11.45;;;3.80;;
18732;SDS011;9495;51.210;2.934;2023-08-01T09:29:06;12.18;;;3.60;;
18732;SDS011;9495;51.210;2.934;2023-08-01T09:31:35;13.15;;;3.70;;
18732;SDS011;9495;51.210;2.934;2023-08-01T09:34:04;12.90;;;4.15;;
18732;SDS011;9495;51.210;2.934;2023-08-01T09:36:35;11.55;;;3.67;;
18732;SDS011;9495;51.210;2.934;2023-08-01T09:39:04;16.67;;;4.20;;
18732;SDS011;9495;51.210;2.934;2023-08-01T09:41:33;15.55;;;3.90;;
18732;SDS011;9495;51.210;2.934;2023-08-01T09:44:01;13.75;;;3.60;;
18732;SDS011;9495;51.210;2.934;2023-08-01T09:46:30;14.43;;;3.88;;
18732;SDS011;9495;51.210;2.934;2023-08-01T09:49:06;11.10;;;3.55;;
18732;SDS011;9495;51.210;2.934;2023-08-01T09:51:47;7.22;;;3.47;;
18732;SDS011;9495;51.210;2.934;2023-08-01T09:54:16;12.68;;;3.22;;
18732;SDS011;9495;51.210;2.934;2023-08-01T09:56:46;11.07;;;3.40;;
18732;SDS011;9495;51.210;2.934;2023-08-01T09:59:15;7.90;;;2.85;;
18732;SDS011;9495;51.210;2.934;2023-08-01T10:01:47;12.18;;;3.30;;
18732;SDS011;9495;51.210;2.934;2023-08-01T10:04:18;14.98;;;3.70;;
18732;SDS011;9495;51.210;2.934;2023-08-01T10:06:54;10.52;;;3.50;;
18732;SDS011;9495;51.210;2.934;2023-08-01T10:09:25;7.45;;;3.15;;
18732;SDS011;9495;51.210;2.934;2023-08-01T10:11:56;11.98;;;2.97;;
18732;SDS011;9495;51.210;2.934;2023-08-01T10:14:25;13.38;;;3.20;;
18732;SDS011;9495;51.210;2.934;2023-08-01T10:16:55;8.20;;;2.40;;
18732;SDS011;9495;51.210;2.934;2023-08-01T10:19:24;8.88;;;2.95;;
18732;SDS011;9495;51.210;2.934;2023-08-01T10:21:54;11.48;;;3.13;;
18732;SDS011;9495;51.210;2.934;2023-08-01T10:24:23;9.68;;;3.13;;
18732;SDS011;9495;51.210;2.934;2023-08-01T10:26:53;10.27;;;3.30;;
18732;SDS011;9495;51.210;2.934;2023-08-01T10:29:22;9.00;;;2.75;;
18732;SDS011;9495;51.210;2.934;2023-08-01T10:32:02;9.77;;;3.30;;
18732;SDS011;9495;51.210;2.934;2023-08-01T10:34:31;12.35;;;3.55;;
18732;SDS011;9495;51.210;2.934;2023-08-01T10:37:01;10.52;;;2.60;;
18732;SDS011;9495;51.210;2.934;2023-08-01T10:39:29;8.60;;;2.67;;
18732;SDS011;9495;51.210;2.934;2023-08-01T10:41:59;8.10;;;2.85;;
18732;SDS011;9495;51.210;2.934;2023-08-01T10:44:28;11.65;;;3.10;;
18732;SDS011;9495;51.210;2.934;2023-08-01T10:46:58;11.35;;;2.92;;
18732;SDS011;9495;51.210;2.934;2023-08-01T10:49:34;9.50;;;2.30;;
18732;SDS011;9495;51.210;2.934;2023-08-01T10:52:15;8.10;;;2.60;;
18732;SDS011;9495;51.210;2.934;2023-08-01T10:54:46;6.88;;;2.80;;
18732;SDS011;9495;51.210;2.934;2023-08-01T10:57:15;10.75;;;2.75;;
18732;SDS011;9495;51.210;2.934;2023-08-01T10:59:45;7.20;;;2.25;;
18732;SDS011;9495;51.210;2.934;2023-08-01T11:02:19;11.10;;;3.17;;
18732;SDS011;9495;51.210;2.934;2023-08-01T11:04:57;10.38;;;3.03;;
18732;SDS011;9495;51.210;2.934;2023-08-01T11:07:27;7.50;;;2.50;;
18732;SDS011;9495;51.210;2.934;2023-08-01T11:10:03;10.63;;;2.63;;
18732;SDS011;9495;51.210;2.934;2023-08-01T11:12:35;9.10;;;2.55;;
18732;SDS011;9495;51.210;2.934;2023-08-01T11:15:05;10.52;;;3.13;;
18732;SDS011;9495;51.210;2.934;2023-08-01T11:17:36;7.70;;;2.50;;
18732;SDS011;9495;51.210;2.934;2023-08-01T11:20:05;11.98;;;3.45;;
18732;SDS011;9495;51.210;2.934;2023-08-01T11:22:37;11.25;;;3.30;;
18732;SDS011;9495;51.210;2.934;2023-08-01T11:25:16;6.43;;;2.70;;
18732;SDS011;9495;51.210;2.934;2023-08-01T11:27:44;10.18;;;3.08;;
18732;SDS011;9495;51.210;2.934;2023-08-01T11:30:13;11.60;;;3.55;;
18732;SDS011;9495;51.210;2.934;2023-08-01T11:32:42;8.15;;;2.70;;
18732;SDS011;9495;51.210;2.934;2023-08-01T11:35:16;10.15;;;2.65;;
18732;SDS011;9495;51.210;2.934;2023-08-01T11:37:46;6.53;;;2.60;;
18732;SDS011;9495;51.210;2.934;2023-08-01T11:40:17;10.63;;;2.90;;
18732;SDS011;9495;51.210;2.934;2023-08-01T11:42:48;12.20;;;2.60;;
18732;SDS011;9495;51.210;2.934;2023-08-01T11:45:18;9.00;;;2.88;;
18732;SDS011;9495;51.210;2.934;2023-08-01T11:47:47;12.55;;;2.90;;
18732;SDS011;9495;51.210;2.934;2023-08-01T11:50:20;7.07;;;2.75;;
18732;SDS011;9495;51.210;2.934;2023-08-01T11:52:51;9.70;;;2.22;;
18732;SDS011;9495;51.210;2.934;2023-08-01T11:55:20;6.93;;;2.45;;
18732;SDS011;9495;51.210;2.934;2023-08-01T11:57:53;7.07;;;2.50;;
18732;SDS011;9495;51.210;2.934;2023-08-01T12:00:22;8.00;;;2.30;;
18732;SDS011;9495;51.210;2.934;2023-08-01T12:03:02;11.82;;;2.40;;
18732;SDS011;9495;51.210;2.934;2023-08-01T12:05:31;12.13;;;2.80;;
18732;SDS011;9495;51.210;2.934;2023-08-01T12:10:48;8.43;;;2.88;;
18732;SDS011;9495;51.210;2.934;2023-08-01T12:13:19;16.85;;;3.75;;
18732;SDS011;9495;51.210;2.934;2023-08-01T12:15:48;12.32;;;3.38;;
18732;SDS011;9495;51.210;2.934;2023-08-01T12:18:20;9.45;;;2.90;;
18732;SDS011;9495;51.210;2.934;2023-08-01T12:20:52;9.32;;;3.17;;
18732;SDS011;9495;51.210;2.934;2023-08-01T12:23:22;11.88;;;3.05;;
18732;SDS011;9495;51.210;2.934;2023-08-01T12:25:50;9.70;;;2.38;;
18732;SDS011;9495;51.210;2.934;2023-08-01T12:28:19;8.68;;;2.80;;
18732;SDS011;9495;51.210;2.934;2023-08-01T12:30:47;8.82;;;2.28;;
18732;SDS011;9495;51.210;2.934;2023-08-01T12:33:17;9.23;;;3.03;;
18732;SDS011;9495;51.210;2.934;2023-08-01T12:35:46;9.77;;;2.60;;
18732;SDS011;9495;51.210;2.934;2023-08-01T12:38:15;12.00;;;3.50;;
18732;SDS011;9495;51.210;2.934;2023-08-01T12:40:44;13.40;;;3.63;;
18732;SDS011;9495;51.210;2.934;2023-08-01T12:43:14;11.35;;;2.85;;
18732;SDS011;9495;51.210;2.934;2023-08-01T12:45:43;7.13;;;2.20;;
18732;SDS011;9495;51.210;2.934;2023-08-01T12:48:16;11.82;;;3.22;;
18732;SDS011;9495;51.210;2.934;2023-08-01T12:50:44;11.15;;;3.15;;
18732;SDS011;9495;51.210;2.934;2023-08-01T12:53:14;12.27;;;3.63;;
18732;SDS011;9495;51.210;2.934;2023-08-01T12:55:45;7.53;;;2.45;;
18732;SDS011;9495;51.210;2.934;2023-08-01T12:58:13;11.38;;;2.80;;
18732;SDS011;9495;51.210;2.934;2023-08-01T13:00:43;16.58;;;3.78;;
18732;SDS011;9495;51.210;2.934;2023-08-01T13:03:11;10.43;;;2.33;;
18732;SDS011;9495;51.210;2.934;2023-08-01T13:05:40;9.40;;;2.50;;
18732;SDS011;9495;51.210;2.934;2023-08-01T13:08:09;6.40;;;1.92;;
18732;SDS011;9495;51.210;2.934;2023-08-01T13:10:38;11.98;;;3.10;;
18732;SDS011;9495;51.210;2.934;2023-08-01T13:13:08;8.13;;;3.00;;
18732;SDS011;9495;51.210;2.934;2023-08-01T13:15:36;16.02;;;3.53;;
18732;SDS011;9495;51.210;2.934;2023-08-01T13:18:05;9.48;;;2.90;;
18732;SDS011;9495;51.210;2.934;2023-08-01T13:20:33;9.60;;;2.85;;
18732;SDS011;9495;51.210;2.934;2023-08-01T13:23:02;9.40;;;2.88;;
18732;SDS011;9495;51.210;2.934;2023-08-01T13:25:31;8.57;;;3.15;;
18732;SDS011;9495;51.210;2.934;2023-08-01T13:28:00;14.48;;;3.17;;
18732;SDS011;9495;51.210;2.934;2023-08-01T13:30:30;12.85;;;3.30;;
18732;SDS011;9495;51.210;2.934;2023-08-01T13:32:58;15.90;;;3.55;;
18732;SDS011;9495;51.210;2.934;2023-08-01T13:35:28;12.45;;;3.55;;
18732;SDS011;9495;51.210;2.934;2023-08-01T13:37:56;15.45;;;3.38;;
18732;SDS011;9495;51.210;2.934;2023-08-01T13:40:24;11.75;;;3.15;;
18732;SDS011;9495;51.210;2.934;2023-08-01T13:42:53;14.40;;;3.50;;
18732;SDS011;9495;51.210;2.934;2023-08-01T13:45:22;9.57;;;2.75;;
18732;SDS011;9495;51.210;2.934;2023-08-01T13:47:51;14.32;;;3.15;;
18732;SDS011;9495;51.210;2.934;2023-08-01T13:50:20;19.00;;;4.63;;
18732;SDS011;9495;51.210;2.934;2023-08-01T13:52:49;15.18;;;3.22;;
18732;SDS011;9495;51.210;2.934;2023-08-01T13:55:17;14.48;;;3.22;;
18732;SDS011;9495;51.210;2.934;2023-08-01T13:57:47;15.75;;;3.38;;
18732;SDS011;9495;51.210;2.934;2023-08-01T14:00:15;10.35;;;3.00;;
18732;SDS011;9495;51.210;2.934;2023-08-01T14:02:44;10.02;;;3.17;;
18732;SDS011;9495;51.210;2.934;2023-08-01T14:05:14;14.48;;;3.70;;
18732;SDS011;9495;51.210;2.934;2023-08-01T14:07:43;15.98;;;3.92;;
18732;SDS011;9495;51.210;2.934;2023-08-01T14:10:12;14.32;;;3.53;;
18732;SDS011;9495;51.210;2.934;2023-08-01T14:12:41;10.93;;;3.05;;
18732;SDS011;9495;51.210;2.934;2023-08-01T14:15:10;12.90;;;3.47;;
18732;SDS011;9495;51.210;2.934;2023-08-01T14:17:38;17.25;;;3.75;;
18732;SDS011;9495;51.210;2.934;2023-08-01T14:20:07;16.38;;;4.00;;
18732;SDS011;9495;51.210;2.934;2023-08-01T14:22:38;16.45;;;3.80;;
18732;SDS011;9495;51.210;2.934;2023-08-01T14:25:08;10.35;;;3.17;;
18732;SDS011;9495;51.210;2.934;2023-08-01T14:27:37;17.15;;;3.60;;
18732;SDS011;9495;51.210;2.934;2023-08-01T14:30:06;21.23;;;4.50;;
18732;SDS011;9495;51.210;2.934;2023-08-01T14:32:36;21.02;;;4.45;;
18732;SDS011;9495;51.210;2.934;2023-08-01T14:35:06;19.20;;;3.42;;
18732;SDS011;9495;51.210;2.934;2023-08-01T14:37:37;20.35;;;4.20;;
18732;SDS011;9495;51.210;2.934;2023-08-01T14:40:09;17.73;;;4.18;;
18732;SDS011;9495;51.210;2.934;2023-08-01T14:42:38;17.27;;;3.70;;
18732;SDS011;9495;51.210;2.934;2023-08-01T14:45:08;14.45;;;3.72;;
18732;SDS011;9495;51.210;2.934;2023-08-01T14:47:39;17.98;;;4.40;;
18732;SDS011;9495;51.210;2.934;2023-08-01T14:50:09;13.10;;;4.18;;
18732;SDS011;9495;51.210;2.934;2023-08-01T14:52:39;20.52;;;4.85;;
18732;SDS011;9495;51.210;2.934;2023-08-01T14:55:08;18.75;;;4.43;;
18732;SDS011;9495;51.210;2.934;2023-08-01T14:57:36;15.77;;;4.40;;
18732;SDS011;9495;51.210;2.934;2023-08-01T15:00:05;26.45;;;5.35;;
18732;SDS011;9495;51.210;2.934;2023-08-01T15:02:36;18.08;;;4.65;;
18732;SDS011;9495;51.210;2.934;2023-08-01T15:05:05;16.20;;;3.85;;
18732;SDS011;9495;51.210;2.934;2023-08-01T15:07:34;18.70;;;4.10;;